createdAt,value
2022-09-13T00:01:04.132Z,76.13
2022-09-13T00:03:32.546Z,75.77
2022-09-13T00:06:08.741Z,75.48
2022-09-13T00:08:36.887Z,76.03
2022-09-13T00:11:05.133Z,76.09
2022-09-13T00:13:33.139Z,75.47
2022-09-13T00:16:03.791Z,75.44
2022-09-13T00:18:33.150Z,75.30
2022-09-13T00:21:11.203Z,74.96
2022-09-13T00:23:40.844Z,75.29
2022-09-13T00:26:11.909Z,75.48
2022-09-13T00:28:40.958Z,75.50
2022-09-13T00:31:11.155Z,75.26
2022-09-13T00:33:40.757Z,75.57
2022-09-13T00:36:12.052Z,75.26
2022-09-13T00:38:41.464Z,75.86
2022-09-13T00:41:14.612Z,76.11
2022-09-13T00:43:48.032Z,75.66
2022-09-13T00:46:25.544Z,75.52
2022-09-13T00:49:02.925Z,74.85
2022-09-13T00:51:32.576Z,75.26
2022-09-13T00:54:02.980Z,75.96
2022-09-13T00:56:39.070Z,76.30
2022-09-13T00:59:14.007Z,76.65
2022-09-13T01:01:48.585Z,76.40
2022-09-13T01:04:21.838Z,76.67
2022-09-13T01:06:53.519Z,76.83
2022-09-13T01:09:21.671Z,75.55
2022-09-13T01:11:55.667Z,76.23
2022-09-13T01:14:25.235Z,77.08
2022-09-13T01:16:54.313Z,76.97
2022-09-13T01:19:23.713Z,76.38
2022-09-13T01:22:29.369Z,75.47
2022-09-13T01:25:31.626Z,75.70
2022-09-13T01:28:26.882Z,76.93
2022-09-13T01:31:03.568Z,77.60
2022-09-13T01:33:53.919Z,77.48
2022-09-13T01:36:52.220Z,77.05
2022-09-13T01:39:43.001Z,77.52
2022-09-13T01:42:22.932Z,77.04
2022-09-13T01:45:11.055Z,76.49
2022-09-13T01:47:54.418Z,76.83
2022-09-13T01:50:37.062Z,77.22
2022-09-13T01:53:19.122Z,76.80
2022-09-13T01:55:59.099Z,77.40
2022-09-13T01:58:34.553Z,77.44
2022-09-13T02:01:13.602Z,77.33
2022-09-13T02:03:53.766Z,77.30
2022-09-13T02:06:27.454Z,78.20
2022-09-13T02:09:01.492Z,77.60
2022-09-13T02:11:30.208Z,78.08
2022-09-13T02:14:06.980Z,77.35
2022-09-13T02:16:40.527Z,76.89
2022-09-13T02:19:18.488Z,76.05
2022-09-13T02:21:53.562Z,76.74
2022-09-13T02:24:29.227Z,77.27
2022-09-13T02:27:03.671Z,76.68
2022-09-13T02:29:36.636Z,77.30
2022-09-13T02:32:14.017Z,77.76
2022-09-13T02:34:52.701Z,78.39
2022-09-13T02:37:21.824Z,78.28
2022-09-13T02:39:56.684Z,78.33
2022-09-13T02:42:33.097Z,78.22
2022-09-13T02:45:01.709Z,78.85
2022-09-13T02:47:45.993Z,79.75
2022-09-13T02:50:33.755Z,79.70
2022-09-13T02:53:15.643Z,79.91
2022-09-13T02:55:56.129Z,79.03
2022-09-13T02:58:35.388Z,78.30
2022-09-13T03:01:03.727Z,78.96
2022-09-13T03:03:31.891Z,77.97
2022-09-13T03:06:01.891Z,78.92
2022-09-13T03:08:31.689Z,79.34
2022-09-13T03:11:14.196Z,80.12
2022-09-13T03:14:17.321Z,79.75
2022-09-13T03:17:06.201Z,80.18
2022-09-13T03:19:54.250Z,80.16
2022-09-13T03:23:30.394Z,79.29
2022-09-13T03:26:27.798Z,79.19
2022-09-13T03:29:14.804Z,78.34
2022-09-13T03:31:59.222Z,79.03
2022-09-13T03:34:49.024Z,78.70
2022-09-13T03:37:30.882Z,79.18
2022-09-13T03:40:08.317Z,79.88
2022-09-13T03:42:47.403Z,78.54
2022-09-13T03:45:23.390Z,78.75
2022-09-13T03:47:53.481Z,79.57
2022-09-13T03:50:26.040Z,79.74
2022-09-13T03:53:01.654Z,79.45
2022-09-13T03:55:33.786Z,79.72
2022-09-13T03:58:02.270Z,79.42
2022-09-13T04:00:30.471Z,79.21
2022-09-13T04:02:58.713Z,78.87
2022-09-13T04:05:27.001Z,79.40
2022-09-13T04:07:54.987Z,79.93
2022-09-13T04:10:24.244Z,80.01
2022-09-13T04:12:55.872Z,79.59
2022-09-13T04:15:24.635Z,80.32
2022-09-13T04:17:52.619Z,79.20
2022-09-13T04:20:21.034Z,79.66
2022-09-13T04:22:53.263Z,78.66
2022-09-13T04:25:22.759Z,79.54
2022-09-13T04:27:56.752Z,79.51
2022-09-13T04:30:25.203Z,79.30
2022-09-13T04:32:53.415Z,78.67
2022-09-13T04:35:21.622Z,78.28
2022-09-13T04:37:49.622Z,77.65
2022-09-13T04:40:18.056Z,78.06
2022-09-13T04:42:46.228Z,78.40
2022-09-13T04:45:15.610Z,79.42
2022-09-13T04:47:43.668Z,79.31
2022-09-13T04:50:11.650Z,79.68
2022-09-13T04:52:39.613Z,80.15
2022-09-13T04:55:08.937Z,78.17
2022-09-13T04:57:36.913Z,77.95
2022-09-13T05:00:06.517Z,77.99
2022-09-13T05:02:35.968Z,76.23
2022-09-13T05:05:04.133Z,76.46
2022-09-13T05:07:32.104Z,77.08
2022-09-13T05:10:00.074Z,77.14
2022-09-13T05:12:28.056Z,75.84
2022-09-13T05:14:56.005Z,76.35
2022-09-13T05:17:23.973Z,75.76
2022-09-13T05:19:53.317Z,74.92
2022-09-13T05:22:21.299Z,75.52
2022-09-13T05:24:49.372Z,75.99
2022-09-13T05:27:17.413Z,74.87
2022-09-13T05:29:45.353Z,75.36
2022-09-13T05:32:13.336Z,74.99
2022-09-13T05:34:41.327Z,74.68
2022-09-13T05:37:10.677Z,72.84
2022-09-13T05:40:00.354Z,72.95
2022-09-13T05:42:26.665Z,72.13
2022-09-13T05:44:54.606Z,71.27
2022-09-13T05:47:22.799Z,70.50
2022-09-13T05:50:09.346Z,70.35
2022-09-13T05:52:39.951Z,69.52
2022-09-13T05:55:09.743Z,69.69
2022-09-13T05:57:38.203Z,68.99
2022-09-13T06:00:07.439Z,68.35
2022-09-13T06:02:35.466Z,68.89
2022-09-13T06:05:03.739Z,69.36
2022-09-13T06:07:31.901Z,68.71
2022-09-13T06:10:01.223Z,67.73
2022-09-13T06:12:29.221Z,67.28
2022-09-13T06:14:57.223Z,67.68
2022-09-13T06:17:25.697Z,67.57
2022-09-13T06:19:53.711Z,68.79
2022-09-13T06:22:21.727Z,69.12
2022-09-13T06:24:49.744Z,69.86
2022-09-13T06:27:19.059Z,70.63
2022-09-13T06:29:47.111Z,71.39
2022-09-13T06:32:15.084Z,72.29
2022-09-13T06:34:43.284Z,73.04
2022-09-13T06:37:11.249Z,74.18
2022-09-13T06:39:39.678Z,74.54
2022-09-13T06:42:07.885Z,74.18
2022-09-13T06:44:37.207Z,75.27
2022-09-13T06:47:05.602Z,75.94
2022-09-13T06:49:33.573Z,76.18
2022-09-13T06:52:01.551Z,76.15
2022-09-13T06:54:29.538Z,76.35
2022-09-13T06:56:57.643Z,76.83
2022-09-13T06:59:25.786Z,77.39
2022-09-13T07:01:55.361Z,77.54
2022-09-13T07:04:23.616Z,76.78
2022-09-13T07:06:51.756Z,76.85
2022-09-13T07:09:22.439Z,77.31
2022-09-13T07:11:54.402Z,76.97
2022-09-13T07:14:24.982Z,77.54
2022-09-13T07:16:55.525Z,77.54
2022-09-13T07:19:26.375Z,77.08
2022-09-13T07:21:56.732Z,77.73
2022-09-13T07:24:25.180Z,77.78
2022-09-13T07:26:53.790Z,78.34
2022-09-13T07:29:24.248Z,78.80
2022-09-13T07:31:56.618Z,78.84
2022-09-13T07:34:27.389Z,78.69
2022-09-13T07:36:55.819Z,77.30
2022-09-13T07:39:24.219Z,77.09
2022-09-13T07:41:53.638Z,74.92
2022-09-13T07:44:22.725Z,75.37
2022-09-13T07:46:50.720Z,75.98
2022-09-13T07:49:20.924Z,75.17
2022-09-13T07:51:51.193Z,75.22
2022-09-13T07:54:20.705Z,73.15
2022-09-13T07:56:50.246Z,72.45
2022-09-13T07:59:19.982Z,70.85
2022-09-13T08:01:51.420Z,70.97
2022-09-13T08:04:26.244Z,71.11
2022-09-13T08:06:54.341Z,71.02
2022-09-13T08:09:22.418Z,71.15
2022-09-13T08:11:52.993Z,70.51
2022-09-13T08:14:23.445Z,69.15
2022-09-13T08:16:52.043Z,68.91
2022-09-13T08:19:21.376Z,69.23
2022-09-13T08:21:49.355Z,69.31
2022-09-13T08:24:21.166Z,69.06
2022-09-13T08:26:49.960Z,67.83
2022-09-13T08:29:18.751Z,68.58
2022-09-13T08:31:47.089Z,68.40
2022-09-13T08:34:18.013Z,68.45
2022-09-13T08:36:47.354Z,66.87
2022-09-13T08:39:15.371Z,66.51
2022-09-13T08:42:25.873Z,66.51
2022-09-13T08:44:59.328Z,66.75
2022-09-13T08:47:41.716Z,65.23
2022-09-13T08:50:20.246Z,66.10
2022-09-13T08:53:16.951Z,65.57
2022-09-13T08:55:56.485Z,66.42
2022-09-13T08:58:46.359Z,66.94
2022-09-13T09:01:32.058Z,65.84
2022-09-13T09:04:11.170Z,66.10
2022-09-13T09:06:39.354Z,65.22
2022-09-13T09:09:17.423Z,65.65
2022-09-13T09:11:54.506Z,64.92
2022-09-13T09:14:32.049Z,63.54
2022-09-13T09:17:06.810Z,63.08
2022-09-13T09:19:40.658Z,62.86
2022-09-13T09:22:17.690Z,62.71
2022-09-13T09:24:54.423Z,64.30
2022-09-13T09:27:23.479Z,63.60
2022-09-13T09:29:58.102Z,60.15
2022-09-13T09:33:06.358Z,60.88
2022-09-13T09:35:57.362Z,60.89
2022-09-13T09:38:41.125Z,60.19
2022-09-13T09:41:22.728Z,59.20
2022-09-13T09:43:59.829Z,58.89
2022-09-13T09:46:33.376Z,58.52
2022-09-13T09:49:32.419Z,58.09
2022-09-13T09:52:03.168Z,55.83
2022-09-13T09:54:31.538Z,56.79
2022-09-13T09:57:00.870Z,56.22
2022-09-13T09:59:33.814Z,55.23
2022-09-13T10:02:07.838Z,54.67
2022-09-13T10:04:36.631Z,54.00
2022-09-13T10:07:25.093Z,54.55
2022-09-13T10:10:04.370Z,53.09
2022-09-13T10:12:38.053Z,54.40
2022-09-13T10:15:19.446Z,54.30
2022-09-13T10:18:21.134Z,53.44
2022-09-13T10:21:06.427Z,52.82
2022-09-13T10:23:36.050Z,53.39
2022-09-13T10:26:11.277Z,52.03
2022-09-13T10:28:48.059Z,51.32
2022-09-13T10:31:19.256Z,51.53
2022-09-13T10:34:00.335Z,51.16
2022-09-13T10:39:24.030Z,50.51
2022-09-13T10:41:57.808Z,51.09
2022-09-13T10:44:37.202Z,50.38
2022-09-13T10:47:13.302Z,49.64
2022-09-13T10:49:47.736Z,49.32
2022-09-13T10:52:29.210Z,48.96
2022-09-13T10:55:24.448Z,49.60
2022-09-13T10:57:54.777Z,50.02
2022-09-13T11:00:32.385Z,50.31
2022-09-13T11:03:33.831Z,49.40
2022-09-13T11:06:09.343Z,50.47
2022-09-13T11:08:53.122Z,49.07
2022-09-13T11:11:33.130Z,49.34
2022-09-13T11:14:29.377Z,49.82
2022-09-13T11:17:13.292Z,50.34
2022-09-13T11:20:03.690Z,49.68
2022-09-13T11:23:05.776Z,49.20
2022-09-13T11:25:52.641Z,49.10
2022-09-13T11:28:37.676Z,49.63
2022-09-13T11:31:36.049Z,50.14
2022-09-13T11:34:33.212Z,49.37
2022-09-13T11:37:33.506Z,50.45
2022-09-13T11:40:24.835Z,50.14
2022-09-13T11:43:08.614Z,50.21
2022-09-13T11:45:50.132Z,50.64
2022-09-13T11:49:01.710Z,50.74
2022-09-13T11:51:50.991Z,50.18
2022-09-13T11:54:43.883Z,51.47
2022-09-13T11:57:18.586Z,51.43
2022-09-13T11:59:55.569Z,51.54
2022-09-13T12:02:33.475Z,50.92
2022-09-13T12:05:22.041Z,50.26
2022-09-13T12:07:59.126Z,50.12
2022-09-13T12:10:35.194Z,48.81
2022-09-13T12:13:10.189Z,48.24
2022-09-13T12:15:42.403Z,48.63
2022-09-13T12:18:18.404Z,48.76
2022-09-13T12:20:53.065Z,48.80
2022-09-13T12:23:30.912Z,48.78
2022-09-13T12:26:04.643Z,49.22
2022-09-13T12:28:41.758Z,49.58
2022-09-13T12:31:19.611Z,49.30
2022-09-13T12:33:49.062Z,49.98
2022-09-13T12:37:17.871Z,50.62
2022-09-13T12:40:23.476Z,49.83
2022-09-13T12:43:13.711Z,48.08
2022-09-13T12:46:35.762Z,48.36
2022-09-13T12:49:23.110Z,48.64
2022-09-13T12:52:28.174Z,48.76
2022-09-13T12:55:53.803Z,48.63
2022-09-13T12:58:54.534Z,49.00
2022-09-13T13:01:25.953Z,49.34
2022-09-13T13:04:00.423Z,48.12
2022-09-13T13:06:37.103Z,48.67
2022-09-13T13:09:28.639Z,48.07
2022-09-13T13:11:59.840Z,47.03
2022-09-13T13:14:53.406Z,47.48
2022-09-13T13:17:48.100Z,47.96
2022-09-13T13:20:49.007Z,46.74
2022-09-13T13:23:27.104Z,47.36
2022-09-13T13:26:13.309Z,46.60
2022-09-13T13:29:15.638Z,47.15
2022-09-13T13:32:12.720Z,47.18
2022-09-13T13:34:47.877Z,46.64
2022-09-13T13:37:36.989Z,47.13
2022-09-13T13:40:29.153Z,45.46
2022-09-13T13:43:32.738Z,45.02
2022-09-13T13:46:28.821Z,45.45
2022-09-13T13:49:17.935Z,45.56
2022-09-13T13:51:46.050Z,46.71
2022-09-13T13:54:31.111Z,46.01
2022-09-13T13:56:59.150Z,46.22
2022-09-13T13:59:33.500Z,46.14
2022-09-13T14:02:03.188Z,46.68
2022-09-13T14:05:08.231Z,46.48
2022-09-13T14:08:26.491Z,47.13
2022-09-13T14:11:10.280Z,47.13
2022-09-13T14:13:57.778Z,47.21
2022-09-13T14:16:46.123Z,46.62
2022-09-13T14:19:31.195Z,47.24
2022-09-13T14:22:15.742Z,47.30
2022-09-13T14:24:48.729Z,47.60
2022-09-13T14:27:22.162Z,48.00
2022-09-13T14:29:54.087Z,47.24
2022-09-13T14:32:25.479Z,47.65
2022-09-13T14:35:01.953Z,48.32
2022-09-13T14:37:34.132Z,48.73
2022-09-13T14:40:17.671Z,47.88
2022-09-13T14:42:48.505Z,48.43
2022-09-13T14:45:20.039Z,48.74
2022-09-13T14:47:56.966Z,48.48
2022-09-13T14:50:34.351Z,49.15
2022-09-13T14:53:07.313Z,49.91
2022-09-13T14:55:41.597Z,50.54
2022-09-13T14:58:19.505Z,50.78
2022-09-13T15:00:54.473Z,51.03
2022-09-13T15:03:23.257Z,51.17
2022-09-13T15:05:57.895Z,51.63
2022-09-13T15:08:46.839Z,52.11
2022-09-13T15:11:28.511Z,51.99
2022-09-13T15:14:05.359Z,52.30
2022-09-13T15:16:33.883Z,52.13
2022-09-13T15:19:29.209Z,51.88
2022-09-13T15:22:17.079Z,52.03
2022-09-13T15:24:50.601Z,51.52
2022-09-13T15:27:27.242Z,51.55
2022-09-13T15:30:00.167Z,51.06
2022-09-13T15:32:35.526Z,51.57
2022-09-13T15:35:03.964Z,51.56
2022-09-13T15:37:37.714Z,51.81
2022-09-13T15:40:22.632Z,52.11
2022-09-13T15:42:52.993Z,52.70
2022-09-13T15:45:23.697Z,52.42
2022-09-13T15:47:53.978Z,52.79
2022-09-13T15:50:26.964Z,53.18
2022-09-13T15:52:56.805Z,53.08
2022-09-13T15:55:25.773Z,53.74
2022-09-13T15:57:54.218Z,54.55
2022-09-13T16:00:24.870Z,54.62
2022-09-13T16:02:53.142Z,54.79
2022-09-13T16:05:21.585Z,54.90
2022-09-13T16:07:49.627Z,55.15
2022-09-13T16:10:23.373Z,55.54
2022-09-13T16:12:51.479Z,56.14
2022-09-13T16:15:19.589Z,56.15
2022-09-13T16:17:47.744Z,56.60
2022-09-13T16:20:17.005Z,56.13
2022-09-13T16:22:45.207Z,56.50
2022-09-13T16:25:14.376Z,56.42
2022-09-13T16:27:44.865Z,56.48
2022-09-13T16:30:16.220Z,56.87
2022-09-13T16:32:44.614Z,57.05
2022-09-13T16:35:14.097Z,57.74
2022-09-13T16:37:42.740Z,57.15
2022-09-13T16:40:13.057Z,57.67
2022-09-13T16:42:41.093Z,57.95
2022-09-13T16:45:12.628Z,58.41
2022-09-13T16:47:42.283Z,59.13
2022-09-13T16:50:11.384Z,59.54
2022-09-13T16:52:40.016Z,59.50
2022-09-13T16:55:09.334Z,60.04
2022-09-13T16:57:37.479Z,60.82
2022-09-13T17:00:10.711Z,60.96
2022-09-13T17:02:40.305Z,61.01
2022-09-13T17:05:10.971Z,61.54
2022-09-13T17:07:39.411Z,62.08
2022-09-13T17:10:10.153Z,62.61
2022-09-13T17:12:38.235Z,63.16
2022-09-13T17:15:14.310Z,63.31
2022-09-13T17:17:44.842Z,63.99
2022-09-13T17:20:14.447Z,64.52
2022-09-13T17:22:42.517Z,64.57
2022-09-13T17:25:11.595Z,65.00
2022-09-13T17:27:39.621Z,65.42
2022-09-13T17:30:12.396Z,65.41
2022-09-13T17:32:41.075Z,65.44
2022-09-13T17:35:11.786Z,65.50
2022-09-13T17:37:40.017Z,65.63
2022-09-13T17:40:09.206Z,65.34
2022-09-13T17:42:37.229Z,65.72
2022-09-13T17:45:06.294Z,65.86
2022-09-13T17:47:34.605Z,66.47
2022-09-13T17:50:02.700Z,66.96
2022-09-13T17:52:34.927Z,67.33
2022-09-13T17:55:03.366Z,67.54
2022-09-13T17:57:31.600Z,67.67
2022-09-13T17:59:59.816Z,67.61
2022-09-13T18:02:28.385Z,68.32
2022-09-13T18:04:56.654Z,68.62
2022-09-13T18:07:24.724Z,69.08
2022-09-13T18:09:54.118Z,69.63
2022-09-13T18:12:22.154Z,70.40
2022-09-13T18:14:50.143Z,70.68
2022-09-13T18:17:18.194Z,71.19
2022-09-13T18:19:47.124Z,71.27
2022-09-13T18:22:15.955Z,71.57
2022-09-13T18:24:44.565Z,71.85
2022-09-13T18:27:13.937Z,71.75
2022-09-13T18:29:41.995Z,72.27
2022-09-13T18:32:10.034Z,72.70
2022-09-13T18:34:38.082Z,73.20
2022-09-13T18:37:06.299Z,73.27
2022-09-13T18:39:34.484Z,73.09
2022-09-13T18:42:02.791Z,73.13
2022-09-13T18:44:33.898Z,72.80
2022-09-13T18:47:02.925Z,72.90
2022-09-13T18:49:30.935Z,73.10
2022-09-13T18:51:58.963Z,73.38
2022-09-13T18:54:26.970Z,73.61
2022-09-13T18:56:55.862Z,73.74
2022-09-13T18:59:23.880Z,73.78
2022-09-13T19:01:53.345Z,73.88
2022-09-13T19:04:21.876Z,73.89
2022-09-13T19:06:52.033Z,73.92
2022-09-13T19:09:22.664Z,74.03
2022-09-13T19:11:53.153Z,74.57
2022-09-13T19:14:24.037Z,74.75
2022-09-13T19:16:55.725Z,75.14
2022-09-13T19:19:24.689Z,75.42
2022-09-13T19:21:52.758Z,75.77
2022-09-13T19:24:21.443Z,76.17
2022-09-13T19:26:51.978Z,76.16
2022-09-13T19:29:23.062Z,76.57
2022-09-13T19:31:55.758Z,77.05
2022-09-13T19:34:24.539Z,77.44
2022-09-13T19:36:57.637Z,77.56
2022-09-13T19:39:29.645Z,77.73
2022-09-13T19:41:59.624Z,77.71
2022-09-13T19:44:28.206Z,77.68
2022-09-13T19:47:36.289Z,77.40
2022-09-13T19:49:45.663Z,77.42
2022-09-13T19:52:13.670Z,76.99
2022-09-13T19:54:41.968Z,76.97
2022-09-13T19:57:10.246Z,77.04
2022-09-13T19:59:38.349Z,77.25
2022-09-13T20:02:07.743Z,77.85
2022-09-13T20:04:36.060Z,78.04
2022-09-13T20:07:04.225Z,78.12
2022-09-13T20:09:32.604Z,78.13
2022-09-13T20:12:01.074Z,78.36
2022-09-13T20:14:29.463Z,78.23
2022-09-13T20:16:57.931Z,78.21
2022-09-13T20:19:40.957Z,78.18
2022-09-13T20:22:11.739Z,78.23
2022-09-13T20:24:39.748Z,78.59
2022-09-13T20:27:07.722Z,78.57
2022-09-13T20:29:36.068Z,78.84
2022-09-13T20:32:04.527Z,78.82
2022-09-13T20:34:35.156Z,78.79
2022-09-13T20:37:03.167Z,78.87
2022-09-13T20:39:31.188Z,78.59
2022-09-13T20:41:59.174Z,77.47
2022-09-13T20:44:27.465Z,76.19
2022-09-13T20:46:55.456Z,73.64
2022-09-13T20:49:23.535Z,73.65
2022-09-13T20:51:53.211Z,74.16
2022-09-13T20:54:21.243Z,74.51
2022-09-13T20:56:49.282Z,74.99
2022-09-13T20:59:17.562Z,75.35
2022-09-13T21:01:45.835Z,75.48
2022-09-13T21:04:13.999Z,75.66
2022-09-13T21:07:03.566Z,76.18
2022-09-13T21:09:32.507Z,76.59
2022-09-13T21:12:02.265Z,77.07
2022-09-13T21:14:33.888Z,77.01
2022-09-13T21:17:06.511Z,77.21
2022-09-13T21:19:34.635Z,77.39
2022-09-13T21:22:03.352Z,77.47
2022-09-13T21:24:32.703Z,77.68
2022-09-13T21:27:00.712Z,77.42
2022-09-13T21:29:29.295Z,77.32
2022-09-13T21:31:57.428Z,77.39
2022-09-13T21:34:27.198Z,77.78
2022-09-13T21:36:55.511Z,77.97
2022-09-13T21:39:24.279Z,78.20
2022-09-13T21:41:53.826Z,78.31
2022-09-13T21:44:21.940Z,77.52
2022-09-13T21:46:51.418Z,76.98
2022-09-13T21:49:20.141Z,76.23
2022-09-13T21:51:49.956Z,76.12
2022-09-13T21:54:20.518Z,76.52
2022-09-13T21:56:53.817Z,76.16
2022-09-13T21:59:23.999Z,75.24
2022-09-13T22:01:54.372Z,75.35
2022-09-13T22:04:27.169Z,75.75
2022-09-13T22:06:56.107Z,75.71
2022-09-13T22:09:27.659Z,76.08
2022-09-13T22:11:57.488Z,76.29
2022-09-13T22:14:26.551Z,77.02
2022-09-13T22:16:54.741Z,77.05
2022-09-13T22:19:26.011Z,77.27
2022-09-13T22:21:58.990Z,77.28
2022-09-13T22:24:29.853Z,77.19
2022-09-13T22:27:00.100Z,77.66
2022-09-13T22:29:28.688Z,77.92
2022-09-13T22:31:57.594Z,78.30
2022-09-13T22:34:30.683Z,78.28
2022-09-13T22:37:00.039Z,78.34
2022-09-13T22:39:28.136Z,78.54
2022-09-13T22:41:56.134Z,78.68
2022-09-13T22:44:25.498Z,78.56
2022-09-13T22:46:53.530Z,78.44
2022-09-13T22:49:21.701Z,78.43
2022-09-13T22:51:49.942Z,78.80
2022-09-13T22:54:20.038Z,79.24
2022-09-13T22:56:48.898Z,79.21
2022-09-13T22:59:20.580Z,79.17
2022-09-13T23:01:50.541Z,78.70
2022-09-13T23:04:18.656Z,78.96
2022-09-13T23:06:47.408Z,79.00
2022-09-13T23:09:18.966Z,79.59
2022-09-13T23:11:48.531Z,79.79
2022-09-13T23:14:19.810Z,79.79
2022-09-13T23:16:52.045Z,80.27
2022-09-13T23:19:23.241Z,80.73
2022-09-13T23:21:53.954Z,80.63
2022-09-13T23:24:24.121Z,80.21
2022-09-13T23:26:56.237Z,80.58
2022-09-13T23:29:24.337Z,81.11
2022-09-13T23:31:54.043Z,81.54
2022-09-13T23:34:22.524Z,81.31
2022-09-13T23:36:50.902Z,81.47
2022-09-13T23:39:21.049Z,82.04
2022-09-13T23:41:51.584Z,81.66
2022-09-13T23:44:20.323Z,81.59
2022-09-13T23:46:48.478Z,81.75
2022-09-13T23:49:18.477Z,81.53
2022-09-13T23:51:46.626Z,81.67
2022-09-13T23:54:15.841Z,80.51
2022-09-13T23:56:44.639Z,80.42
2022-09-13T23:59:14.341Z,80.07
